sensor_id;sensor_type;location;lat;lon;timestamp;pressure;altitude;pressure_sealevel;temperature;humidity
32733;BME280;11867;51.198;11.966;2024-01-25T00:00:33;101090.09;;;9.14;76.29
32733;BME280;11867;51.198;11.966;2024-01-25T00:05:56;101077.97;;;9.05;76.44
32733;BME280;11867;51.198;11.966;2024-01-25T00:11:21;101089.06;;;8.98;76.61
32733;BME280;11867;51.198;11.966;2024-01-25T00:16:44;101104.13;;;9.06;76.45
32733;BME280;11867;51.198;11.966;2024-01-25T00:22:07;101089.59;;;8.78;77.65
32733;BME280;11867;51.198;11.966;2024-01-25T00:27:31;101091.00;;;8.81;77.99
32733;BME280;11867;51.198;11.966;2024-01-25T00:32:55;101087.56;;;8.91;77.61
32733;BME280;11867;51.198;11.966;2024-01-25T00:38:19;101090.63;;;8.94;77.53
32733;BME280;11867;51.198;11.966;2024-01-25T00:43:44;101084.44;;;8.99;77.97
32733;BME280;11867;51.198;11.966;2024-01-25T00:49:07;101085.38;;;8.87;78.17
32733;BME280;11867;51.198;11.966;2024-01-25T00:54:31;101092.81;;;8.75;78.46
32733;BME280;11867;51.198;11.966;2024-01-25T00:59:58;101096.59;;;8.91;78.34
32733;BME280;11867;51.198;11.966;2024-01-25T01:05:22;101102.25;;;8.89;78.37
32733;BME280;11867;51.198;11.966;2024-01-25T01:10:45;101095.94;;;8.84;79.00
32733;BME280;11867;51.198;11.966;2024-01-25T01:16:10;101101.31;;;8.79;79.20
32733;BME280;11867;51.198;11.966;2024-01-25T01:21:33;101104.66;;;8.86;79.05
32733;BME280;11867;51.198;11.966;2024-01-25T01:26:56;101107.69;;;8.89;78.32
32733;BME280;11867;51.198;11.966;2024-01-25T01:32:21;101116.34;;;8.86;78.17
32733;BME280;11867;51.198;11.966;2024-01-25T01:37:44;101123.63;;;8.81;78.35
32733;BME280;11867;51.198;11.966;2024-01-25T01:43:07;101119.91;;;9.09;77.10
32733;BME280;11867;51.198;11.966;2024-01-25T01:48:31;101127.06;;;8.93;77.42
32733;BME280;11867;51.198;11.966;2024-01-25T01:53:55;101127.22;;;8.86;77.65
32733;BME280;11867;51.198;11.966;2024-01-25T01:59:18;101124.78;;;8.85;78.02
32733;BME280;11867;51.198;11.966;2024-01-25T02:04:43;101125.94;;;8.89;77.93
32733;BME280;11867;51.198;11.966;2024-01-25T02:10:07;101135.16;;;8.71;78.44
32733;BME280;11867;51.198;11.966;2024-01-25T02:15:31;101131.88;;;8.52;79.14
32733;BME280;11867;51.198;11.966;2024-01-25T02:20:55;101139.50;;;8.38;79.88
32733;BME280;11867;51.198;11.966;2024-01-25T02:26:20;101138.47;;;8.56;79.67
32733;BME280;11867;51.198;11.966;2024-01-25T02:31:43;101124.25;;;8.88;78.49
32733;BME280;11867;51.198;11.966;2024-01-25T02:37:06;101117.88;;;8.60;79.45
32733;BME280;11867;51.198;11.966;2024-01-25T02:42:30;101108.88;;;8.60;80.06
32733;BME280;11867;51.198;11.966;2024-01-25T02:47:54;101101.38;;;8.16;81.32
32733;BME280;11867;51.198;11.966;2024-01-25T02:53:18;101117.59;;;8.28;81.39
32733;BME280;11867;51.198;11.966;2024-01-25T02:58:43;101106.50;;;8.13;82.70
32733;BME280;11867;51.198;11.966;2024-01-25T03:04:06;101124.75;;;8.34;81.98
32733;BME280;11867;51.198;11.966;2024-01-25T03:09:29;101131.22;;;8.45;80.59
32733;BME280;11867;51.198;11.966;2024-01-25T03:14:54;101141.22;;;8.27;81.49
32733;BME280;11867;51.198;11.966;2024-01-25T03:20:17;101134.06;;;8.21;81.53
32733;BME280;11867;51.198;11.966;2024-01-25T03:25:40;101117.94;;;8.15;81.57
32733;BME280;11867;51.198;11.966;2024-01-25T03:31:05;101100.13;;;8.07;81.92
32733;BME280;11867;51.198;11.966;2024-01-25T03:36:28;101117.06;;;7.97;82.57
32733;BME280;11867;51.198;11.966;2024-01-25T03:41:51;101118.25;;;8.18;81.85
32733;BME280;11867;51.198;11.966;2024-01-25T03:47:15;101134.19;;;7.98;82.59
32733;BME280;11867;51.198;11.966;2024-01-25T03:52:38;101124.28;;;7.92;82.54
32733;BME280;11867;51.198;11.966;2024-01-25T03:58:01;101123.41;;;7.86;82.91
32733;BME280;11867;51.198;11.966;2024-01-25T04:03:26;101127.53;;;7.77;82.86
32733;BME280;11867;51.198;11.966;2024-01-25T04:08:49;101139.34;;;7.82;83.19
32733;BME280;11867;51.198;11.966;2024-01-25T04:14:12;101140.22;;;7.71;82.92
32733;BME280;11867;51.198;11.966;2024-01-25T04:19:37;101151.72;;;7.50;83.85
32733;BME280;11867;51.198;11.966;2024-01-25T04:25:00;101165.06;;;7.51;83.68
32733;BME280;11867;51.198;11.966;2024-01-25T04:30:23;101181.78;;;7.60;83.01
32733;BME280;11867;51.198;11.966;2024-01-25T04:35:47;101183.56;;;7.54;83.11
32733;BME280;11867;51.198;11.966;2024-01-25T04:41:13;101193.50;;;7.48;83.18
32733;BME280;11867;51.198;11.966;2024-01-25T04:46:36;101188.44;;;7.40;83.90
32733;BME280;11867;51.198;11.966;2024-01-25T04:52:01;101202.31;;;7.56;82.22
32733;BME280;11867;51.198;11.966;2024-01-25T04:57:24;101213.28;;;7.61;81.33
32733;BME280;11867;51.198;11.966;2024-01-25T05:02:47;101219.41;;;7.68;80.20
32733;BME280;11867;51.198;11.966;2024-01-25T05:08:11;101222.13;;;7.68;80.63
32733;BME280;11867;51.198;11.966;2024-01-25T05:13:34;101226.94;;;7.78;79.99
32733;BME280;11867;51.198;11.966;2024-01-25T05:18:57;101251.81;;;7.86;79.71
32733;BME280;11867;51.198;11.966;2024-01-25T05:24:22;101267.50;;;7.96;79.21
32733;BME280;11867;51.198;11.966;2024-01-25T05:29:45;101269.72;;;7.99;78.47
32733;BME280;11867;51.198;11.966;2024-01-25T05:35:08;101270.09;;;7.91;79.62
32733;BME280;11867;51.198;11.966;2024-01-25T05:40:33;101276.72;;;8.24;79.36
32733;BME280;11867;51.198;11.966;2024-01-25T05:45:56;101283.66;;;8.03;79.62
32733;BME280;11867;51.198;11.966;2024-01-25T05:51:19;101292.84;;;8.02;79.29
32733;BME280;11867;51.198;11.966;2024-01-25T05:56:43;101292.16;;;8.06;79.13
32733;BME280;11867;51.198;11.966;2024-01-25T06:02:06;101302.06;;;8.01;78.88
32733;BME280;11867;51.198;11.966;2024-01-25T06:07:30;101296.84;;;8.11;78.43
32733;BME280;11867;51.198;11.966;2024-01-25T06:12:55;101297.47;;;7.89;79.76
32733;BME280;11867;51.198;11.966;2024-01-25T06:18:18;101308.78;;;8.10;79.58
32733;BME280;11867;51.198;11.966;2024-01-25T06:23:44;101313.81;;;8.42;78.04
32733;BME280;11867;51.198;11.966;2024-01-25T06:29:08;101328.94;;;8.26;78.13
32733;BME280;11867;51.198;11.966;2024-01-25T06:34:31;101336.28;;;8.14;79.48
32733;BME280;11867;51.198;11.966;2024-01-25T06:39:54;101344.38;;;7.85;80.28
32733;BME280;11867;51.198;11.966;2024-01-25T06:45:19;101356.84;;;8.09;79.12
32733;BME280;11867;51.198;11.966;2024-01-25T06:50:43;101359.91;;;8.13;79.08
32733;BME280;11867;51.198;11.966;2024-01-25T06:56:06;101363.91;;;8.22;78.94
32733;BME280;11867;51.198;11.966;2024-01-25T07:01:30;101374.31;;;8.25;78.78
32733;BME280;11867;51.198;11.966;2024-01-25T07:06:55;101375.03;;;8.09;78.83
32733;BME280;11867;51.198;11.966;2024-01-25T07:12:18;101373.16;;;7.98;79.58
32733;BME280;11867;51.198;11.966;2024-01-25T07:17:43;101387.47;;;7.81;80.71
32733;BME280;11867;51.198;11.966;2024-01-25T07:23:06;101385.81;;;7.92;79.34
32733;BME280;11867;51.198;11.966;2024-01-25T07:28:29;101398.78;;;7.78;80.11
32733;BME280;11867;51.198;11.966;2024-01-25T07:33:53;101416.38;;;7.99;78.92
32733;BME280;11867;51.198;11.966;2024-01-25T07:39:17;101421.31;;;7.55;80.59
32733;BME280;11867;51.198;11.966;2024-01-25T07:44:40;101428.88;;;7.77;80.51
32733;BME280;11867;51.198;11.966;2024-01-25T07:50:05;101431.13;;;7.92;79.53
32733;BME280;11867;51.198;11.966;2024-01-25T07:55:28;101432.25;;;7.37;81.33
32733;BME280;11867;51.198;11.966;2024-01-25T08:00:52;101445.59;;;7.50;81.22
32733;BME280;11867;51.198;11.966;2024-01-25T08:06:17;101453.66;;;7.57;80.81
32733;BME280;11867;51.198;11.966;2024-01-25T08:11:40;101438.69;;;7.66;80.85
32733;BME280;11867;51.198;11.966;2024-01-25T08:17:03;101445.72;;;7.43;80.95
32733;BME280;11867;51.198;11.966;2024-01-25T08:22:27;101433.38;;;7.59;80.62
32733;BME280;11867;51.198;11.966;2024-01-25T08:27:51;101434.91;;;7.67;80.87
32733;BME280;11867;51.198;11.966;2024-01-25T08:33:15;101447.22;;;7.81;80.29
32733;BME280;11867;51.198;11.966;2024-01-25T08:38:40;101439.88;;;7.70;80.72
32733;BME280;11867;51.198;11.966;2024-01-25T08:44:03;101431.16;;;7.80;80.52
32733;BME280;11867;51.198;11.966;2024-01-25T08:49:27;101413.28;;;7.96;79.58
32733;BME280;11867;51.198;11.966;2024-01-25T08:54:52;101433.63;;;8.05;78.84
32733;BME280;11867;51.198;11.966;2024-01-25T09:00:16;101458.66;;;8.07;78.69
32733;BME280;11867;51.198;11.966;2024-01-25T09:05:40;101455.00;;;8.25;78.94
32733;BME280;11867;51.198;11.966;2024-01-25T09:11:08;101460.88;;;8.22;78.39
32733;BME280;11867;51.198;11.966;2024-01-25T09:16:31;101493.03;;;8.48;77.78
32733;BME280;11867;51.198;11.966;2024-01-25T09:21:54;101476.63;;;8.43;77.71
32733;BME280;11867;51.198;11.966;2024-01-25T09:27:20;101483.31;;;8.64;77.06
32733;BME280;11867;51.198;11.966;2024-01-25T09:32:43;101489.03;;;8.92;76.15
32733;BME280;11867;51.198;11.966;2024-01-25T09:38:08;101492.28;;;8.77;76.92
32733;BME280;11867;51.198;11.966;2024-01-25T09:43:33;101503.28;;;9.11;76.59
32733;BME280;11867;51.198;11.966;2024-01-25T09:48:57;101499.31;;;9.01;75.96
32733;BME280;11867;51.198;11.966;2024-01-25T09:54:21;101507.19;;;8.62;77.05
32733;BME280;11867;51.198;11.966;2024-01-25T09:59:46;101511.41;;;8.82;76.77
32733;BME280;11867;51.198;11.966;2024-01-25T10:05:12;101529.28;;;8.66;77.33
32733;BME280;11867;51.198;11.966;2024-01-25T10:10:36;101515.59;;;8.61;77.61
32733;BME280;11867;51.198;11.966;2024-01-25T10:16:01;101522.50;;;8.92;76.54
32733;BME280;11867;51.198;11.966;2024-01-25T10:21:24;101529.72;;;9.27;75.35
32733;BME280;11867;51.198;11.966;2024-01-25T10:26:49;101536.91;;;9.62;73.98
32733;BME280;11867;51.198;11.966;2024-01-25T10:32:13;101537.75;;;11.08;69.71
32733;BME280;11867;51.198;11.966;2024-01-25T10:37:39;101532.38;;;12.80;63.81
32733;BME280;11867;51.198;11.966;2024-01-25T10:43:02;101555.63;;;13.45;61.07
32733;BME280;11867;51.198;11.966;2024-01-25T10:48:28;101556.91;;;12.22;64.38
32733;BME280;11867;51.198;11.966;2024-01-25T10:53:51;101559.06;;;11.33;67.15
32733;BME280;11867;51.198;11.966;2024-01-25T10:59:16;101556.91;;;11.13;67.71
32733;BME280;11867;51.198;11.966;2024-01-25T11:04:52;101547.53;;;11.80;66.33
32733;BME280;11867;51.198;11.966;2024-01-25T11:10:17;101528.66;;;12.11;64.41
32733;BME280;11867;51.198;11.966;2024-01-25T11:15:40;101526.50;;;11.54;66.49
32733;BME280;11867;51.198;11.966;2024-01-25T11:21:05;101517.00;;;11.07;67.40
32733;BME280;11867;51.198;11.966;2024-01-25T11:26:28;101521.78;;;11.49;67.70
32733;BME280;11867;51.198;11.966;2024-01-25T11:31:52;101520.00;;;13.35;62.33
32733;BME280;11867;51.198;11.966;2024-01-25T11:37:16;101511.03;;;15.07;58.46
32733;BME280;11867;51.198;11.966;2024-01-25T11:42:40;101518.69;;;15.10;57.70
32733;BME280;11867;51.198;11.966;2024-01-25T11:48:05;101516.78;;;16.24;54.71
32733;BME280;11867;51.198;11.966;2024-01-25T11:53:30;101513.19;;;16.29;53.89
32733;BME280;11867;51.198;11.966;2024-01-25T11:58:53;101506.94;;;16.18;54.68
32733;BME280;11867;51.198;11.966;2024-01-25T12:04:18;101508.22;;;14.37;57.25
32733;BME280;11867;51.198;11.966;2024-01-25T12:09:43;101524.47;;;14.08;57.70
32733;BME280;11867;51.198;11.966;2024-01-25T12:15:07;101512.94;;;14.26;56.52
32733;BME280;11867;51.198;11.966;2024-01-25T12:20:30;101529.88;;;13.41;58.33
32733;BME280;11867;51.198;11.966;2024-01-25T12:25:55;101516.75;;;14.15;57.46
32733;BME280;11867;51.198;11.966;2024-01-25T12:31:18;101518.50;;;13.02;59.29
32733;BME280;11867;51.198;11.966;2024-01-25T12:36:41;101523.44;;;13.10;59.47
32733;BME280;11867;51.198;11.966;2024-01-25T12:42:06;101518.19;;;12.88;59.80
32733;BME280;11867;51.198;11.966;2024-01-25T12:47:31;101521.25;;;14.97;56.38
32733;BME280;11867;51.198;11.966;2024-01-25T12:52:54;101525.78;;;14.41;56.67
32733;BME280;11867;51.198;11.966;2024-01-25T12:58:22;101526.75;;;13.12;58.80
32733;BME280;11867;51.198;11.966;2024-01-25T13:03:45;101530.00;;;12.08;60.99
32733;BME280;11867;51.198;11.966;2024-01-25T13:09:10;101531.56;;;11.18;64.25
32733;BME280;11867;51.198;11.966;2024-01-25T13:14:34;101533.81;;;10.99;65.17
32733;BME280;11867;51.198;11.966;2024-01-25T13:19:58;101521.28;;;11.25;64.57
32733;BME280;11867;51.198;11.966;2024-01-25T13:25:21;101523.41;;;10.74;66.23
32733;BME280;11867;51.198;11.966;2024-01-25T13:30:46;101532.81;;;10.44;67.16
32733;BME280;11867;51.198;11.966;2024-01-25T13:36:09;101529.34;;;9.98;68.46
32733;BME280;11867;51.198;11.966;2024-01-25T13:41:35;101521.25;;;10.03;68.28
32733;BME280;11867;51.198;11.966;2024-01-25T13:46:59;101519.53;;;9.80;69.12
32733;BME280;11867;51.198;11.966;2024-01-25T13:52:23;101527.97;;;9.49;69.62
32733;BME280;11867;51.198;11.966;2024-01-25T13:57:47;101522.53;;;9.49;69.75
32733;BME280;11867;51.198;11.966;2024-01-25T14:03:12;101531.44;;;9.45;70.11
32733;BME280;11867;51.198;11.966;2024-01-25T14:08:35;101517.50;;;9.29;70.89
32733;BME280;11867;51.198;11.966;2024-01-25T14:13:59;101516.59;;;9.24;71.38
32733;BME280;11867;51.198;11.966;2024-01-25T14:19:23;101509.91;;;9.60;71.17
32733;BME280;11867;51.198;11.966;2024-01-25T14:24:46;101512.06;;;9.75;70.27
32733;BME280;11867;51.198;11.966;2024-01-25T14:30:10;101510.63;;;9.10;71.54
32733;BME280;11867;51.198;11.966;2024-01-25T14:35:36;101519.59;;;9.11;71.57
32733;BME280;11867;51.198;11.966;2024-01-25T14:40:59;101521.56;;;8.86;72.86
32733;BME280;11867;51.198;11.966;2024-01-25T14:46:24;101521.28;;;9.12;72.79
32733;BME280;11867;51.198;11.966;2024-01-25T14:51:48;101516.38;;;8.85;72.70
32733;BME280;11867;51.198;11.966;2024-01-25T14:57:11;101519.75;;;9.04;72.45
32733;BME280;11867;51.198;11.966;2024-01-25T15:02:37;101524.22;;;9.10;72.06
32733;BME280;11867;51.198;11.966;2024-01-25T15:08:01;101502.66;;;8.80;73.08
32733;BME280;11867;51.198;11.966;2024-01-25T15:13:25;101504.00;;;9.06;71.96
32733;BME280;11867;51.198;11.966;2024-01-25T15:18:50;101499.34;;;8.78;73.59
32733;BME280;11867;51.198;11.966;2024-01-25T15:24:15;101511.91;;;8.79;73.62
32733;BME280;11867;51.198;11.966;2024-01-25T15:29:39;101506.50;;;8.55;74.80
32733;BME280;11867;51.198;11.966;2024-01-25T15:35:02;101498.78;;;8.40;75.58
32733;BME280;11867;51.198;11.966;2024-01-25T15:40:27;101499.63;;;8.17;76.84
32733;BME280;11867;51.198;11.966;2024-01-25T15:45:50;101500.09;;;7.91;77.76
32733;BME280;11867;51.198;11.966;2024-01-25T15:51:13;101504.00;;;8.18;76.81
32733;BME280;11867;51.198;11.966;2024-01-25T15:56:37;101500.78;;;7.98;77.15
32733;BME280;11867;51.198;11.966;2024-01-25T16:02:00;101515.19;;;7.86;78.18
32733;BME280;11867;51.198;11.966;2024-01-25T16:07:24;101513.03;;;7.77;77.92
32733;BME280;11867;51.198;11.966;2024-01-25T16:12:48;101519.66;;;7.81;77.55
32733;BME280;11867;51.198;11.966;2024-01-25T16:18:12;101508.47;;;7.89;77.02
32733;BME280;11867;51.198;11.966;2024-01-25T16:23:35;101505.78;;;8.01;76.51
32733;BME280;11867;51.198;11.966;2024-01-25T16:29:00;101505.88;;;7.94;76.62
32733;BME280;11867;51.198;11.966;2024-01-25T16:34:23;101502.47;;;8.11;75.73
32733;BME280;11867;51.198;11.966;2024-01-25T16:39:46;101510.09;;;7.78;76.93
32733;BME280;11867;51.198;11.966;2024-01-25T16:45:11;101512.56;;;7.68;77.34
32733;BME280;11867;51.198;11.966;2024-01-25T16:50:34;101523.41;;;7.68;77.26
32733;BME280;11867;51.198;11.966;2024-01-25T16:55:58;101526.41;;;7.78;76.79
32733;BME280;11867;51.198;11.966;2024-01-25T17:01:22;101532.00;;;8.19;75.83
32733;BME280;11867;51.198;11.966;2024-01-25T17:06:45;101532.09;;;8.00;75.91
32733;BME280;11867;51.198;11.966;2024-01-25T17:12:09;101525.81;;;8.00;76.46
32733;BME280;11867;51.198;11.966;2024-01-25T17:17:38;101532.94;;;8.01;76.25
32733;BME280;11867;51.198;11.966;2024-01-25T17:23:01;101537.78;;;7.99;76.35
32733;BME280;11867;51.198;11.966;2024-01-25T17:28:25;101541.00;;;7.65;77.64
32733;BME280;11867;51.198;11.966;2024-01-25T17:33:50;101542.31;;;7.63;78.12
32733;BME280;11867;51.198;11.966;2024-01-25T17:39:14;101529.78;;;7.62;78.84
32733;BME280;11867;51.198;11.966;2024-01-25T17:44:37;101536.78;;;7.09;80.34
32733;BME280;11867;51.198;11.966;2024-01-25T17:50:02;101540.00;;;7.18;80.56
32733;BME280;11867;51.198;11.966;2024-01-25T17:55:26;101531.06;;;7.29;80.01
32733;BME280;11867;51.198;11.966;2024-01-25T18:00:48;101534.00;;;6.60;83.17
32733;BME280;11867;51.198;11.966;2024-01-25T18:06:13;101532.13;;;6.17;85.60
32733;BME280;11867;51.198;11.966;2024-01-25T18:11:38;101530.69;;;6.58;83.01
32733;BME280;11867;51.198;11.966;2024-01-25T18:17:01;101535.50;;;6.75;82.05
32733;BME280;11867;51.198;11.966;2024-01-25T18:22:28;101546.94;;;6.15;85.46
32733;BME280;11867;51.198;11.966;2024-01-25T18:27:51;101545.94;;;5.45;88.38
32733;BME280;11867;51.198;11.966;2024-01-25T18:33:16;101555.72;;;5.01;91.08
32733;BME280;11867;51.198;11.966;2024-01-25T18:38:40;101549.44;;;4.49;94.83
32733;BME280;11867;51.198;11.966;2024-01-25T18:44:03;101548.41;;;4.37;95.46
32733;BME280;11867;51.198;11.966;2024-01-25T18:49:26;101563.16;;;4.14;97.21
32733;BME280;11867;51.198;11.966;2024-01-25T18:54:51;101566.06;;;3.99;97.73
32733;BME280;11867;51.198;11.966;2024-01-25T19:00:15;101557.13;;;4.25;96.37
32733;BME280;11867;51.198;11.966;2024-01-25T19:05:40;101546.81;;;4.94;91.10
32733;BME280;11867;51.198;11.966;2024-01-25T19:11:06;101545.63;;;4.70;91.61
32733;BME280;11867;51.198;11.966;2024-01-25T19:16:29;101552.97;;;3.83;96.93
32733;BME280;11867;51.198;11.966;2024-01-25T19:21:52;101552.34;;;3.88;97.17
32733;BME280;11867;51.198;11.966;2024-01-25T19:27:17;101551.75;;;4.12;94.17
32733;BME280;11867;51.198;11.966;2024-01-25T19:32:40;101548.59;;;4.35;92.31
32733;BME280;11867;51.198;11.966;2024-01-25T19:38:05;101541.50;;;4.54;91.75
32733;BME280;11867;51.198;11.966;2024-01-25T19:43:29;101544.88;;;4.36;93.60
32733;BME280;11867;51.198;11.966;2024-01-25T19:48:55;101551.94;;;4.51;92.87
32733;BME280;11867;51.198;11.966;2024-01-25T19:54:18;101553.88;;;4.95;90.45
32733;BME280;11867;51.198;11.966;2024-01-25T19:59:43;101551.22;;;4.75;91.78
32733;BME280;11867;51.198;11.966;2024-01-25T20:05:08;101547.31;;;4.58;90.63
32733;BME280;11867;51.198;11.966;2024-01-25T20:10:32;101565.00;;;4.54;91.47
32733;BME280;11867;51.198;11.966;2024-01-25T20:15:56;101579.97;;;3.83;93.78
32733;BME280;11867;51.198;11.966;2024-01-25T20:21:19;101586.00;;;2.75;100.00
32733;BME280;11867;51.198;11.966;2024-01-25T20:26:42;101582.00;;;2.36;100.00
32733;BME280;11867;51.198;11.966;2024-01-25T20:32:08;101577.16;;;2.53;100.00
32733;BME280;11867;51.198;11.966;2024-01-25T20:37:31;101577.13;;;2.47;100.00
32733;BME280;11867;51.198;11.966;2024-01-25T20:42:56;101570.19;;;2.66;100.00
32733;BME280;11867;51.198;11.966;2024-01-25T20:48:20;101567.72;;;2.71;100.00
32733;BME280;11867;51.198;11.966;2024-01-25T20:53:43;101577.06;;;2.12;100.00
32733;BME280;11867;51.198;11.966;2024-01-25T20:59:21;101558.25;;;2.40;100.00
32733;BME280;11867;51.198;11.966;2024-01-25T21:04:47;101550.56;;;2.43;100.00
32733;BME280;11867;51.198;11.966;2024-01-25T21:10:11;101538.13;;;3.26;100.00
32733;BME280;11867;51.198;11.966;2024-01-25T21:15:37;101532.13;;;3.30;99.98
32733;BME280;11867;51.198;11.966;2024-01-25T21:21:04;101525.47;;;3.19;100.00
32733;BME280;11867;51.198;11.966;2024-01-25T21:26:29;101531.16;;;4.38;96.89
32733;BME280;11867;51.198;11.966;2024-01-25T21:31:54;101526.47;;;4.85;91.36
32733;BME280;11867;51.198;11.966;2024-01-25T21:37:19;101520.97;;;4.40;94.89
32733;BME280;11867;51.198;11.966;2024-01-25T21:42:42;101527.22;;;4.40;95.08
32733;BME280;11867;51.198;11.966;2024-01-25T21:48:05;101529.06;;;4.40;94.98
32733;BME280;11867;51.198;11.966;2024-01-25T21:53:33;101519.53;;;4.17;96.79
32733;BME280;11867;51.198;11.966;2024-01-25T21:58:56;101522.03;;;4.25;96.82
32733;BME280;11867;51.198;11.966;2024-01-25T22:04:19;101516.31;;;4.67;94.16
32733;BME280;11867;51.198;11.966;2024-01-25T22:09:44;101514.16;;;4.31;96.72
32733;BME280;11867;51.198;11.966;2024-01-25T22:15:07;101514.78;;;3.66;100.00
32733;BME280;11867;51.198;11.966;2024-01-25T22:20:30;101509.59;;;3.71;100.00
32733;BME280;11867;51.198;11.966;2024-01-25T22:25:55;101506.06;;;3.71;100.00
32733;BME280;11867;51.198;11.966;2024-01-25T22:31:17;101499.47;;;4.78;97.22
32733;BME280;11867;51.198;11.966;2024-01-25T22:36:40;101502.41;;;4.70;94.54
32733;BME280;11867;51.198;11.966;2024-01-25T22:42:05;101491.97;;;3.82;99.89
32733;BME280;11867;51.198;11.966;2024-01-25T22:47:29;101496.69;;;4.47;96.67
32733;BME280;11867;51.198;11.966;2024-01-25T22:52:53;101497.97;;;4.11;97.29
32733;BME280;11867;51.198;11.966;2024-01-25T22:58:17;101503.97;;;4.26;97.99
32733;BME280;11867;51.198;11.966;2024-01-25T23:03:40;101500.44;;;4.25;97.86
32733;BME280;11867;51.198;11.966;2024-01-25T23:09:04;101497.13;;;4.23;97.87
32733;BME280;11867;51.198;11.966;2024-01-25T23:14:29;101503.56;;;4.22;96.87
32733;BME280;11867;51.198;11.966;2024-01-25T23:19:52;101500.25;;;4.07;99.40
32733;BME280;11867;51.198;11.966;2024-01-25T23:25:15;101485.94;;;4.07;99.70
32733;BME280;11867;51.198;11.966;2024-01-25T23:30:39;101486.28;;;4.43;95.85
32733;BME280;11867;51.198;11.966;2024-01-25T23:36:02;101492.91;;;4.48;96.35
32733;BME280;11867;51.198;11.966;2024-01-25T23:41:26;101491.53;;;4.90;94.98
32733;BME280;11867;51.198;11.966;2024-01-25T23:46:52;101486.91;;;5.93;89.23
32733;BME280;11867;51.198;11.966;2024-01-25T23:52:15;101478.03;;;5.85;87.80
32733;BME280;11867;51.198;11.966;2024-01-25T23:57:38;101477.72;;;6.00;87.72
